Wheeler Army Airfield Wahiawa US
ICAO: PHHI
IATA:
Category: Medium
Scheduled Services:

Elevation: 837 ft
TransAlt. 0 ft.

Airport Communications:
VFR ADVSY SVC:118.3
HONOLULU APP:118.3
ATIS:119.675
CTAF:126.3
DEP:118.3
GND:41.5
LIGHTNING RDO:139.2
PINEAPPLE:125.1
PMSV METRO:125.1
HONOLULU RDO:122.2
TWR:126.3

PHHI Zoom In..

If you have problems with the map follow the link
https://www.worldairports.se/pages/airport.php?
ICAO=PHHI

Runways:

(A) RW 06 length 5607 ft width 294 ft
---- / hdg 58

(B) RW 24 length 5607 ft width 294 ft
---- / hdg 238

Location; PHHI
Day. 06 / Time. 12.56 Zulu
* Altimeter: 29.91
* Temperature: 20° c. 68°f.
* Wind from: 000° Speed 00 kn.
Dewpoint: 20° c.
Visibility: 10 Statute Miles.
Clouds: Overcast 9500 ft.
Conditions: Rain.

PHHI 061256Z AUTO 00000KT 10SM RA OVC095 20/20 A2991 RMK AO2 SLP119 P0006 T01980196 $


Wind - Calm.

 
 
jpsmedia worldairports.se 2019   terms of use